Jaipur, India
Current Conditions -  °F | °C
As of 3:30 AM on Saturday 29 Nov 2014 (Local Time) from VIJP Reporting Station
Haze Haze  
Wind Chill: 64°   Ceiling: Unl
Heat Index: 64°   Visibility: 1.1mi
Dew Point: 55°   Wind: 0mph
Humidity: 73%   Direction: NA
Pressure: 29.94"   Gusts: NA
Location:  26.91°N, 75.8°E
Report Text: VIJP 282230Z 00000KT 1800 R27/P2000N HZ NSC 18/13 Q1014 NOSIG
Loading
Personal Weather Stations






























Interactive Weather Map New forecast layout! Learn more

10-Day Weather Forecast

Advertisements
Track Severe Weather on mobile